Sitc Xiamen — 3ELU — position and weather

sailwx.info

Track history (hours):
 
Tides and Currents Weather Stations Pressure Air Temp Water Temp Dewpoint Dewpoint Depression Visibility Wind Speed Wind Dir Waves Ship Positions

Sitc Xiamen

Last reported at 2014-Oct-31 12:24 UTC. Time now 2014-Oct-31 15:55 UTC.
Position N 33°43' E 129°58'.

Length 145 m; draft 6.6 m.

Type: Ship (hazmat cat A). MMSI: 355090000.

Date/timePositionNaut miles runAvg speedWind from/ knotsBaromVisibWave heightAir tempDewpointWater temp
2014-Oct-31 12:24N 33°43' E 129°58'1315.2
2014-Oct-31 11:31N 33°50' E 130°12'10 0.6
2014-Oct-30 17:32N 33°55' E 130°23'1413.9
2014-Oct-30 16:33N 33°42' E 130°16'8 7.4
2014-Oct-30 15:31N 33°39' E 130°24'0 0.0
2014-Oct-30 09:22N 33°39' E 130°24'0 0.0
2014-Oct-30 08:32N 33°39' E 130°24'0 0.0
2014-Oct-30 07:31N 33°39' E 130°24'8 7.7
2014-Oct-30 06:33N 33°41' E 130°16'35414.1
2014-Oct-29 05:30N 36°27' E 123°53'1516.2
2014-Oct-29 04:33N 36°39' E 123°43'1616.1
2014-Oct-29 03:32N 36°53' E 123°32'1514.5
2014-Oct-29 02:32N 37°06' E 123°22'1414.0
2014-Oct-29 01:30N 37°18' E 123°13'10314.1
2014-Oct-28 18:10N 38°45' E 122°02'11 1.0
2014-Oct-28 06:33N 38°38' E 121°51'4414.4
2014-Oct-28 03:31N 37°56' E 121°38'1314.1
2014-Oct-28 02:34N 37°43' E 121°30'1010.3
2014-Oct-28 01:34N 37°35' E 121°23'0 0.1
2014-Oct-28 00:31N 37°35' E 121°23'0 0.0
2014-Oct-27 23:31N 37°35' E 121°23'0 0.0
2014-Oct-27 22:31N 37°35' E 121°23'0 0.0
2014-Oct-27 21:13N 37°35' E 121°23'0 0.0
2014-Oct-27 20:31N 37°35' E 121°23'0 0.0
2014-Oct-27 19:31N 37°35' E 121°23'0 0.0
2014-Oct-27 18:31N 37°35' E 121°23'0 0.0
2014-Oct-27 17:31N 37°35' E 121°23'0 0.0
2014-Oct-27 16:31N 37°35' E 121°23'0 0.0
2014-Oct-27 15:31N 37°35' E 121°23'0 0.0
2014-Oct-27 14:31N 37°35' E 121°23'0 0.0
2014-Oct-27 13:31N 37°35' E 121°23'0 0.0
2014-Oct-27 12:31N 37°35' E 121°23'0 0.0
2014-Oct-27 11:31N 37°35' E 121°23'0 0.0
2014-Oct-27 10:31N 37°35' E 121°23'0 0.0
2014-Oct-27 09:31N 37°35' E 121°23'3 3.4
2014-Oct-27 08:33N 37°36' E 121°27'1615.7
2014-Oct-27 07:33N 37°48' E 121°15'16215.7
2014-Oct-26 21:15N 38°54' E 118°06'912.2
2014-Oct-26 20:33N 38°57' E 117°55'7 6.9
2014-Oct-26 19:31N 38°59' E 117°47'0 0.0
2014-Oct-26 18:31N 38°59' E 117°47'0 0.0
2014-Oct-26 17:31N 38°59' E 117°47'0 0.0
2014-Oct-26 16:25N 38°59' E 117°47'0 0.0
2014-Oct-26 15:25N 38°59' E 117°47'0 0.0
2014-Oct-26 14:31N 38°59' E 117°47'0 0.0
2014-Oct-26 13:31N 38°59' E 117°47'0 0.0
2014-Oct-26 12:31N 38°59' E 117°47'0 0.0
2014-Oct-26 11:32N 38°59' E 117°47'0 0.0
2014-Oct-26 10:25N 38°59' E 117°47'0 0.0
2014-Oct-26 09:31N 38°59' E 117°47'0 0.0
2014-Oct-26 08:25N 38°59' E 117°47'0 0.0
2014-Oct-26 07:31N 38°59' E 117°47'0 0.0
2014-Oct-26 06:31N 38°59' E 117°47'9 9.3
2014-Oct-26 05:33N 38°57' E 117°58'148 5.9
2014-Oct-25 04:16N 38°00' E 120°53'1114.6
2014-Oct-25 03:31N 37°58' E 121°07'1414.0
2014-Oct-25 02:32N 37°55' E 121°24'1414.1
2014-Oct-25 01:33N 37°52' E 121°41'1413.7
2014-Oct-25 00:33N 37°49' E 121°58'1414.0
2014-Oct-24 23:33N 37°46' E 122°15'1414.4
2014-Oct-24 22:33N 37°43' E 122°33'1514.0
2014-Oct-24 21:29N 37°33' E 122°47'1515.0
2014-Oct-24 20:29N 37°20' E 122°57'3313.8
2014-Oct-24 18:07N 36°52' E 123°19'1213.2
2014-Oct-24 17:10N 36°42' E 123°28'813.2
2014-Oct-24 16:33N 36°36' E 123°34'1413.7
2014-Oct-24 15:33N 36°25' E 123°44'34713.7
2014-Oct-23 14:12N 33°48' E 130°03'1014.8
2014-Oct-23 13:33N 33°44' E 130°14'1010.2
2014-Oct-23 12:33N 33°39' E 130°24'0 0.0
2014-Oct-23 11:33N 33°39' E 130°24'0 0.0
2014-Oct-23 10:33N 33°39' E 130°24'0 0.0
2014-Oct-23 09:33N 33°39' E 130°24'0 0.0
2014-Oct-23 08:33N 33°39' E 130°24'0 0.0
2014-Oct-23 07:33N 33°39' E 130°24'0 0.0
2014-Oct-23 06:33N 33°39' E 130°24'0 0.0
2014-Oct-23 05:33N 33°39' E 130°24'0 0.0
2014-Oct-23 04:30N 33°39' E 130°24'0 0.0
2014-Oct-23 03:33N 33°39' E 130°24'0 0.0
2014-Oct-23 02:34N 33°39' E 130°24'0 0.0
2014-Oct-23 01:33N 33°39' E 130°24'0 0.0
2014-Oct-23 00:32N 33°39' E 130°24'7 7.3
2014-Oct-22 23:33N 33°41' E 130°16'1313.3
2014-Oct-22 22:33N 33°53' E 130°22'  
Track history (hours):
 
Tides and Currents Weather Stations Pressure Air Temp Water Temp Dewpoint Dewpoint Depression Visibility Wind Speed Wind Dir Waves Ship Positions

Sitc Xiamen

Last reported at 2014-Oct-31 12:24 UTC. Time now 2014-Oct-31 15:55 UTC.
Position N 33°43' E 129°58'.

Length 145 m; draft 6.6 m.

Type: Ship (hazmat cat A). MMSI: 355090000.

Date/timePositionNaut miles runAvg speedWind from/ knotsBaromVisibWave heightAir tempDewpointWater temp
2014-Oct-31 12:24N 33°43' E 129°58'1315.2
2014-Oct-31 11:31N 33°50' E 130°12'10 0.6
2014-Oct-30 17:32N 33°55' E 130°23'1413.9
2014-Oct-30 16:33N 33°42' E 130°16'8 7.4
2014-Oct-30 15:31N 33°39' E 130°24'0 0.0
2014-Oct-30 09:22N 33°39' E 130°24'0 0.0
2014-Oct-30 08:32N 33°39' E 130°24'0 0.0
2014-Oct-30 07:31N 33°39' E 130°24'8 7.7
2014-Oct-30 06:33N 33°41' E 130°16'35414.1
2014-Oct-29 05:30N 36°27' E 123°53'1516.2
2014-Oct-29 04:33N 36°39' E 123°43'1616.1
2014-Oct-29 03:32N 36°53' E 123°32'1514.5
2014-Oct-29 02:32N 37°06' E 123°22'1414.0
2014-Oct-29 01:30N 37°18' E 123°13'10314.1
2014-Oct-28 18:10N 38°45' E 122°02'11 1.0
2014-Oct-28 06:33N 38°38' E 121°51'4414.4
2014-Oct-28 03:31N 37°56' E 121°38'1314.1
2014-Oct-28 02:34N 37°43' E 121°30'1010.3
2014-Oct-28 01:34N 37°35' E 121°23'0 0.1
2014-Oct-28 00:31N 37°35' E 121°23'0 0.0
2014-Oct-27 23:31N 37°35' E 121°23'0 0.0
2014-Oct-27 22:31N 37°35' E 121°23'0 0.0
2014-Oct-27 21:13N 37°35' E 121°23'0 0.0
2014-Oct-27 20:31N 37°35' E 121°23'0 0.0
2014-Oct-27 19:31N 37°35' E 121°23'0 0.0
2014-Oct-27 18:31N 37°35' E 121°23'0 0.0
2014-Oct-27 17:31N 37°35' E 121°23'0 0.0
2014-Oct-27 16:31N 37°35' E 121°23'0 0.0
2014-Oct-27 15:31N 37°35' E 121°23'0 0.0
2014-Oct-27 14:31N 37°35' E 121°23'0 0.0
2014-Oct-27 13:31N 37°35' E 121°23'0 0.0
2014-Oct-27 12:31N 37°35' E 121°23'0 0.0
2014-Oct-27 11:31N 37°35' E 121°23'0 0.0
2014-Oct-27 10:31N 37°35' E 121°23'0 0.0
2014-Oct-27 09:31N 37°35' E 121°23'3 3.4
2014-Oct-27 08:33N 37°36' E 121°27'1615.7
2014-Oct-27 07:33N 37°48' E 121°15'16215.7
2014-Oct-26 21:15N 38°54' E 118°06'912.2
2014-Oct-26 20:33N 38°57' E 117°55'7 6.9
2014-Oct-26 19:31N 38°59' E 117°47'0 0.0
2014-Oct-26 18:31N 38°59' E 117°47'0 0.0
2014-Oct-26 17:31N 38°59' E 117°47'0 0.0
2014-Oct-26 16:25N 38°59' E 117°47'0 0.0
2014-Oct-26 15:25N 38°59' E 117°47'0 0.0
2014-Oct-26 14:31N 38°59' E 117°47'0 0.0
2014-Oct-26 13:31N 38°59' E 117°47'0 0.0
2014-Oct-26 12:31N 38°59' E 117°47'0 0.0
2014-Oct-26 11:32N 38°59' E 117°47'0 0.0
2014-Oct-26 10:25N 38°59' E 117°47'0 0.0
2014-Oct-26 09:31N 38°59' E 117°47'0 0.0
2014-Oct-26 08:25N 38°59' E 117°47'0 0.0
2014-Oct-26 07:31N 38°59' E 117°47'0 0.0
2014-Oct-26 06:31N 38°59' E 117°47'9 9.3
2014-Oct-26 05:33N 38°57' E 117°58'148 5.9
2014-Oct-25 04:16N 38°00' E 120°53'1114.6
2014-Oct-25 03:31N 37°58' E 121°07'1414.0
2014-Oct-25 02:32N 37°55' E 121°24'1414.1
2014-Oct-25 01:33N 37°52' E 121°41'1413.7
2014-Oct-25 00:33N 37°49' E 121°58'1414.0
2014-Oct-24 23:33N 37°46' E 122°15'1414.4
2014-Oct-24 22:33N 37°43' E 122°33'1514.0
2014-Oct-24 21:29N 37°33' E 122°47'1515.0
2014-Oct-24 20:29N 37°20' E 122°57'3313.8
2014-Oct-24 18:07N 36°52' E 123°19'1213.2
2014-Oct-24 17:10N 36°42' E 123°28'813.2
2014-Oct-24 16:33N 36°36' E 123°34'1413.7
2014-Oct-24 15:33N 36°25' E 123°44'34713.7
2014-Oct-23 14:12N 33°48' E 130°03'1014.8
2014-Oct-23 13:33N 33°44' E 130°14'1010.2
2014-Oct-23 12:33N 33°39' E 130°24'0 0.0
2014-Oct-23 11:33N 33°39' E 130°24'0 0.0
2014-Oct-23 10:33N 33°39' E 130°24'0 0.0
2014-Oct-23 09:33N 33°39' E 130°24'0 0.0
2014-Oct-23 08:33N 33°39' E 130°24'0 0.0
2014-Oct-23 07:33N 33°39' E 130°24'0 0.0
2014-Oct-23 06:33N 33°39' E 130°24'0 0.0
2014-Oct-23 05:33N 33°39' E 130°24'0 0.0
2014-Oct-23 04:30N 33°39' E 130°24'0 0.0
2014-Oct-23 03:33N 33°39' E 130°24'0 0.0
2014-Oct-23 02:34N 33°39' E 130°24'0 0.0
2014-Oct-23 01:33N 33°39' E 130°24'0 0.0
2014-Oct-23 00:32N 33°39' E 130°24'7 7.3
2014-Oct-22 23:33N 33°41' E 130°16'1313.3
2014-Oct-22 22:33N 33°53' E 130°22'  

Dump ship's entire track history